Yellow Rock, Kentucky
Current Conditions -  °F | °C
As of 9:53 PM on Sunday 21 Dec 2014 (Local Time) from KJKL Reporting Station
Overcast Overcast  
Wind Chill: 32°   Ceiling: 3300
Heat Index: 37°   Visibility: 10mi
Dew Point: 26°   Wind: 6mph
Humidity: 65%   Direction: 60°ENE
Pressure: 30.1"   Gusts: NA
Location:  37.5908°N, 83.7186°W
Report Text: KJKL 220253Z AUTO 06005KT 10SM OVC033 03/M03 A3010 RMK AO2 SLP202 T00281033 58008
Loading
Personal Weather Stations






























Interactive Weather Map New forecast layout! Learn more

10-Day Weather Forecast

Advertisements
Track Severe Weather on mobile